Time;durP1;ratioP1;P1;durP2;ratioP2;P2;SDS_P1;SDS_P2;PMS_P1;PMS_P2;Temp;Humidity;BMP_temperature;BMP_pressure;BME280_temperature;BME280_humidity;BME280_pressure;Samples;Min_cycle;Max_cycle;Signal;HPM_P1;HPM_P2
2023/07/09 00:01:18;;;;;;;8.00;7.20;;;24.80;91.70;;;;;;5036816;28;20416;-77
2023/07/09 00:03:45;;;;;;;8.30;7.53;;;24.70;91.70;;;;;;5054074;28;20408;-77
2023/07/09 00:06:12;;;;;;;8.10;7.30;;;24.70;92.00;;;;;;5054342;28;20404;-78
2023/07/09 00:08:43;;;;;;;7.97;7.27;;;24.70;92.50;;;;;;5054283;28;20412;-78
2023/07/09 00:11:12;;;;;;;8.00;7.10;;;24.60;92.70;;;;;;5054552;28;20869;-78
2023/07/09 00:13:38;;;;;;;9.00;8.13;;;24.60;92.00;;;;;;5054463;28;20488;-78
2023/07/09 00:16:11;;;;;;;7.20;6.60;;;24.60;91.00;;;;;;5052997;28;20878;-78
2023/07/09 00:18:37;;;;;;;7.03;6.53;;;24.60;91.30;;;;;;5036766;28;20478;-78
2023/07/09 00:21:03;;;;;;;7.27;6.60;;;24.60;91.70;;;;;;5053679;28;20787;-78
2023/07/09 00:23:29;;;;;;;6.63;6.03;;;24.50;91.20;;;;;;5053937;28;20412;-78
2023/07/09 00:25:55;;;;;;;9.30;7.30;;;24.60;91.30;;;;;;5053706;28;20173;-76
2023/07/09 00:28:21;;;;;;;7.10;6.60;;;24.60;91.50;;;;;;5054184;28;20431;-78
2023/07/09 00:30:48;;;;;;;7.47;6.67;;;24.50;91.80;;;;;;5053496;28;20900;-78
2023/07/09 00:33:15;;;;;;;7.90;7.20;;;24.50;91.80;;;;;;5054143;28;20184;-78
2023/07/09 00:35:50;;;;;;;7.30;6.60;;;24.50;92.40;;;;;;5054074;28;20404;-78
2023/07/09 00:38:21;;;;;;;7.13;6.63;;;24.50;92.40;;;;;;5053833;28;20455;-78
2023/07/09 00:41:04;;;;;;;7.50;6.90;;;24.40;92.80;;;;;;5053438;28;20409;-77
2023/07/09 00:43:35;;;;;;;7.63;6.93;;;24.40;93.10;;;;;;5054194;28;20420;-78
2023/07/09 00:46:16;;;;;;;7.60;7.00;;;24.40;93.40;;;;;;5052893;28;20432;-78
2023/07/09 00:48:44;;;;;;;7.10;6.60;;;24.30;93.70;;;;;;5053888;28;20486;-78
2023/07/09 00:51:13;;;;;;;8.17;7.53;;;24.30;93.80;;;;;;5053472;28;20743;-78
2023/07/09 00:53:45;;;;;;;8.50;7.70;;;24.20;93.30;;;;;;5053635;28;20392;-78
2023/07/09 00:56:16;;;;;;;8.50;7.27;;;24.10;92.50;;;;;;5053544;28;20472;-78
2023/07/09 00:58:46;;;;;;;8.80;8.10;;;24.10;93.70;;;;;;5053614;28;20447;-78
2023/07/09 01:01:16;;;;;;;7.60;6.93;;;24.10;94.20;;;;;;5053613;28;20881;-77
2023/07/09 01:03:58;;;;;;;7.70;7.10;;;24.10;95.20;;;;;;5053533;28;20412;-78
2023/07/09 01:06:32;;;;;;;7.80;7.20;;;24.00;94.50;;;;;;5053230;28;20404;-78
2023/07/09 01:09:00;;;;;;;8.00;7.30;;;23.80;92.60;;;;;;5052846;28;20412;-78
2023/07/09 01:11:26;;;;;;;7.40;6.80;;;23.80;93.50;;;;;;5053361;28;20500;-78
2023/07/09 01:13:56;;;;;;;7.83;7.20;;;23.80;94.80;;;;;;5034849;28;20444;-78
2023/07/09 01:16:25;;;;;;;8.03;7.37;;;23.80;95.30;;;;;;5053226;28;20464;-78
2023/07/09 01:18:52;;;;;;;8.30;7.50;;;23.80;95.20;;;;;;5052720;28;20416;-78
2023/07/09 01:21:18;;;;;;;8.37;7.67;;;23.80;95.60;;;;;;5053194;28;20426;-78
2023/07/09 01:23:47;;;;;;;6.80;6.30;;;23.80;95.90;;;;;;5035524;28;20400;-78
2023/07/09 01:26:25;;;;;;;11.33;7.70;;;23.70;96.50;;;;;;5053162;28;20453;-78
2023/07/09 01:28:52;;;;;;;8.87;8.07;;;23.60;96.60;;;;;;5052183;28;20409;-78
2023/07/09 01:31:18;;;;;;;8.07;7.37;;;23.60;97.40;;;;;;5053047;28;20408;-79
2023/07/09 01:33:47;;;;;;;8.47;7.87;;;23.50;97.60;;;;;;5052969;28;20435;-78
2023/07/09 01:36:23;;;;;;;8.40;7.80;;;23.50;98.00;;;;;;5052821;28;20178;-78
2023/07/09 01:38:50;;;;;;;7.17;6.57;;;23.50;98.00;;;;;;5052379;28;20487;-77
2023/07/09 01:41:17;;;;;;;7.50;6.90;;;23.40;98.50;;;;;;5052819;28;20439;-78
2023/07/09 01:43:44;;;;;;;7.80;7.20;;;23.40;98.60;;;;;;5052840;28;20458;-78
2023/07/09 01:46:12;;;;;;;8.17;7.37;;;23.30;99.00;;;;;;5052313;28;20888;-79
2023/07/09 01:48:40;;;;;;;7.00;6.47;;;23.30;99.20;;;;;;5052807;28;20466;-78
2023/07/09 01:51:09;;;;;;;7.00;6.40;;;23.20;98.40;;;;;;5052115;28;20408;-78
2023/07/09 01:53:37;;;;;;;7.37;6.77;;;23.20;99.50;;;;;;5052645;28;20862;-79
2023/07/09 01:56:03;;;;;;;6.90;6.40;;;23.20;99.30;;;;;;5052040;28;20436;-78
2023/07/09 01:58:30;;;;;;;7.63;6.80;;;23.10;98.70;;;;;;5053001;28;20749;-78
2023/07/09 02:00:56;;;;;;;7.73;7.00;;;23.10;99.40;;;;;;5051801;28;20956;-78
2023/07/09 02:03:24;;;;;;;8.10;7.40;;;23.10;99.40;;;;;;5034683;28;20408;-78
2023/07/09 02:05:52;;;;;;;8.50;7.80;;;23.10;99.80;;;;;;5034606;28;20204;-75
2023/07/09 02:08:18;;;;;;;7.00;6.50;;;23.10;99.90;;;;;;5052426;28;20408;-78
2023/07/09 02:10:45;;;;;;;9.13;8.37;;;23.10;99.80;;;;;;5052492;28;20404;-78
2023/07/09 02:13:11;;;;;;;8.43;7.60;;;23.00;98.90;;;;;;5051961;28;20173;-78
2023/07/09 02:15:36;;;;;;;7.57;6.93;;;23.00;98.90;;;;;;5052316;28;20455;-78
2023/07/09 02:18:02;;;;;;;8.23;7.53;;;23.10;99.40;;;;;;5051770;28;20464;-78
2023/07/09 02:20:28;;;;;;;8.23;7.63;;;23.00;99.30;;;;;;5034531;28;20190;-78
2023/07/09 02:22:54;;;;;;;9.13;8.30;;;23.00;99.30;;;;;;5051786;28;20402;-77
2023/07/09 02:25:19;;;;;;;9.27;8.57;;;23.00;99.50;;;;;;5052543;28;20603;-78
2023/07/09 02:27:45;;;;;;;9.37;8.67;;;23.00;99.90;;;;;;5052317;28;20185;-78
2023/07/09 02:30:11;;;;;;;9.67;8.87;;;23.00;99.90;;;;;;5051674;28;20174;-78
2023/07/09 02:32:37;;;;;;;9.57;8.57;;;23.00;99.90;;;;;;5052299;28;20174;-78
2023/07/09 02:35:04;;;;;;;9.53;8.83;;;22.90;99.90;;;;;;5051389;28;20526;-78
2023/07/09 02:37:30;;;;;;;10.07;9.27;;;22.90;99.90;;;;;;5052254;28;20243;-78
2023/07/09 02:39:56;;;;;;;10.13;9.33;;;22.90;99.90;;;;;;5052947;28;20769;-78
2023/07/09 02:42:22;;;;;;;10.23;9.23;;;22.90;99.90;;;;;;5056219;28;20392;-78
2023/07/09 02:44:48;;;;;;;9.33;8.50;;;22.80;99.90;;;;;;5056125;28;20173;-78
2023/07/09 02:47:15;;;;;;;9.57;8.77;;;22.80;99.90;;;;;;5055449;28;20424;-78
2023/07/09 02:49:41;;;;;;;9.50;8.70;;;22.70;99.90;;;;;;5056101;28;20557;-78
2023/07/09 02:52:07;;;;;;;11.73;8.60;;;22.70;99.90;;;;;;5055309;28;20423;-78
2023/07/09 02:54:33;;;;;;;11.03;9.27;;;22.70;99.90;;;;;;5056279;28;20503;-78
2023/07/09 02:56:59;;;;;;;10.73;9.73;;;22.70;99.90;;;;;;5055247;28;20598;-78
2023/07/09 02:59:26;;;;;;;11.23;10.13;;;22.60;99.90;;;;;;5055980;28;20685;-78
2023/07/09 03:01:52;;;;;;;10.33;9.57;;;22.60;99.90;;;;;;5055889;28;20259;-78
2023/07/09 03:04:20;;;;;;;10.13;9.33;;;22.60;99.90;;;;;;5056051;28;20469;-78
2023/07/09 03:06:46;;;;;;;9.97;9.07;;;22.60;99.90;;;;;;5055736;28;20404;-78
2023/07/09 03:09:12;;;;;;;11.10;10.10;;;22.50;99.90;;;;;;5055142;28;20400;-78
2023/07/09 03:11:38;;;;;;;11.07;10.07;;;22.50;99.90;;;;;;5055601;28;20412;-78
2023/07/09 03:14:06;;;;;;;10.10;9.30;;;22.40;99.90;;;;;;5055128;28;20177;-75
2023/07/09 03:16:33;;;;;;;10.73;9.93;;;22.40;99.90;;;;;;5055151;28;20297;-78
2023/07/09 03:19:00;;;;;;;10.73;9.83;;;22.30;99.90;;;;;;5054997;28;20412;-78
2023/07/09 03:21:27;;;;;;;10.20;9.30;;;22.30;99.90;;;;;;5055119;28;20412;-78
2023/07/09 03:23:54;;;;;;;10.70;9.90;;;22.30;99.90;;;;;;5055506;28;20400;-78
2023/07/09 03:26:19;;;;;;;10.73;9.77;;;22.30;99.90;;;;;;5055267;28;20428;-78
2023/07/09 03:28:45;;;;;;;10.67;9.80;;;22.20;99.90;;;;;;5054979;28;20435;-78
2023/07/09 03:31:11;;;;;;;11.00;10.10;;;22.30;99.90;;;;;;5054658;28;20173;-78
2023/07/09 03:33:37;;;;;;;10.73;9.83;;;22.20;99.90;;;;;;5055230;28;20412;-78
2023/07/09 03:36:04;;;;;;;11.10;10.10;;;22.20;99.90;;;;;;5054249;28;20181;-78
2023/07/09 03:38:30;;;;;;;11.00;9.90;;;22.20;99.90;;;;;;5054833;28;20178;-78
2023/07/09 03:40:56;;;;;;;11.20;10.20;;;22.10;99.90;;;;;;5054576;28;20404;-77
2023/07/09 03:43:23;;;;;;;11.63;10.67;;;22.20;99.90;;;;;;5055057;28;20905;-78
2023/07/09 03:45:50;;;;;;;11.03;10.03;;;22.20;99.90;;;;;;5055234;28;20200;-78
2023/07/09 03:48:18;;;;;;;10.97;10.17;;;22.10;99.90;;;;;;5054655;28;20470;-78
2023/07/09 03:50:45;;;;;;;11.37;10.40;;;22.10;99.90;;;;;;5054350;28;20401;-78
2023/07/09 03:53:11;;;;;;;11.83;10.80;;;22.20;99.90;;;;;;5053813;28;20495;-79
2023/07/09 03:55:37;;;;;;;11.97;10.87;;;22.10;99.90;;;;;;5054818;28;20473;-78
2023/07/09 03:58:03;;;;;;;12.80;11.70;;;22.10;99.90;;;;;;5054178;28;20522;-78
2023/07/09 04:00:29;;;;;;;12.30;11.40;;;22.10;99.90;;;;;;5054739;28;20178;-78
2023/07/09 04:02:56;;;;;;;11.97;10.87;;;22.10;99.90;;;;;;5054691;28;20397;-78
2023/07/09 04:05:26;;;;;;;11.50;10.67;;;22.10;99.90;;;;;;5054815;28;20412;-78
2023/07/09 04:07:52;;;;;;;12.60;11.60;;;22.10;99.90;;;;;;5054752;28;20412;-78
2023/07/09 04:10:18;;;;;;;12.20;11.30;;;22.10;99.90;;;;;;5054216;28;20416;-79
2023/07/09 04:12:44;;;;;;;13.10;11.90;;;22.10;99.90;;;;;;5054526;28;20841;-79
2023/07/09 04:15:12;;;;;;;12.87;11.63;;;22.00;99.90;;;;;;5053714;28;20845;-78
2023/07/09 04:17:38;;;;;;;12.17;11.07;;;22.10;99.90;;;;;;5036427;28;20963;-77
2023/07/09 04:20:05;;;;;;;12.70;11.60;;;22.10;99.90;;;;;;5053790;28;20396;-78
2023/07/09 04:22:32;;;;;;;13.23;12.23;;;22.10;99.90;;;;;;5054357;28;20466;-78
2023/07/09 04:24:58;;;;;;;12.30;11.40;;;22.10;99.90;;;;;;5053922;28;20807;-65
2023/07/09 04:27:27;;;;;;;13.37;12.27;;;22.10;99.90;;;;;;5053889;28;20404;-78
2023/07/09 04:29:53;;;;;;;12.57;11.57;;;22.10;99.90;;;;;;5054286;28;20465;-78
2023/07/09 04:32:20;;;;;;;12.83;11.53;;;22.20;99.90;;;;;;5053492;28;20424;-78
2023/07/09 04:34:46;;;;;;;12.10;11.20;;;22.10;99.90;;;;;;5054095;28;20407;-79
2023/07/09 04:37:12;;;;;;;11.70;10.80;;;22.20;99.90;;;;;;5053342;28;20470;-79
2023/07/09 04:39:39;;;;;;;12.73;11.43;;;22.20;99.90;;;;;;5053696;28;20409;-78
2023/07/09 04:42:10;;;;;;;12.23;11.23;;;22.10;99.90;;;;;;5053344;28;20412;-79
2023/07/09 04:44:36;;;;;;;12.23;11.23;;;22.20;99.90;;;;;;5053760;28;20400;-79
2023/07/09 04:47:01;;;;;;;11.60;10.70;;;22.20;99.90;;;;;;5053253;28;20763;-78
2023/07/09 04:49:27;;;;;;;11.60;10.53;;;22.20;99.90;;;;;;5053796;28;20638;-79
2023/07/09 04:51:53;;;;;;;12.60;11.57;;;22.20;99.90;;;;;;5053529;28;20184;-79
2023/07/09 04:54:18;;;;;;;10.27;9.47;;;22.20;99.90;;;;;;5053096;28;20813;-79
2023/07/09 04:56:44;;;;;;;13.80;12.50;;;22.20;99.90;;;;;;5053703;28;20201;-79
2023/07/09 04:59:13;;;;;;;11.23;10.33;;;22.20;99.90;;;;;;5052962;28;20170;-79
2023/07/09 05:01:38;;;;;;;21.77;15.40;;;22.20;99.90;;;;;;5053650;28;20173;-78
2023/07/09 05:04:04;;;;;;;14.23;12.80;;;22.30;99.90;;;;;;5034893;28;20904;-79
2023/07/09 05:06:30;;;;;;;12.40;11.30;;;22.30;99.90;;;;;;5053503;28;20169;-79
2023/07/09 05:08:56;;;;;;;12.67;11.03;;;22.30;99.90;;;;;;5053458;28;20170;-79
2023/07/09 05:11:22;;;;;;;13.03;11.77;;;22.40;99.90;;;;;;5052722;28;20408;-79
2023/07/09 05:13:47;;;;;;;13.33;12.13;;;22.40;99.90;;;;;;5053360;28;20253;-79
2023/07/09 05:16:14;;;;;;;11.10;10.10;;;22.50;99.90;;;;;;5052553;28;20249;-79
2023/07/09 05:18:40;;;;;;;10.37;9.47;;;22.50;99.90;;;;;;5053225;28;20538;-79
2023/07/09 05:21:05;;;;;;;10.43;9.53;;;22.60;99.90;;;;;;5052577;28;20407;-78
2023/07/09 05:23:31;;;;;;;10.60;9.60;;;22.60;99.90;;;;;;5053188;28;20245;-79
2023/07/09 05:26:01;;;;;;;9.97;9.17;;;22.60;99.90;;;;;;5053111;28;20173;-78
2023/07/09 05:28:28;;;;;;;11.50;10.43;;;22.60;99.90;;;;;;5053410;28;20249;-79
2023/07/09 05:30:54;;;;;;;10.00;9.10;;;22.70;99.90;;;;;;5053113;28;20408;-79
2023/07/09 05:33:20;;;;;;;11.67;10.70;;;22.80;99.90;;;;;;5052431;28;20415;-79
2023/07/09 05:35:46;;;;;;;10.33;9.40;;;22.80;99.90;;;;;;5035239;28;20742;-78
2023/07/09 05:38:13;;;;;;;9.70;8.90;;;22.90;99.90;;;;;;5052299;28;20447;-79
2023/07/09 05:40:39;;;;;;;10.07;9.00;;;22.90;99.90;;;;;;5052936;28;20186;-79
2023/07/09 05:43:05;;;;;;;10.70;9.67;;;23.00;99.90;;;;;;5052265;28;20764;-78
2023/07/09 05:45:31;;;;;;;11.10;9.93;;;23.10;99.90;;;;;;5052539;28;20420;-79
2023/07/09 05:48:00;;;;;;;9.30;8.40;;;23.10;99.90;;;;;;5052788;28;20188;-79
2023/07/09 05:50:28;;;;;;;11.57;10.40;;;23.10;99.90;;;;;;5052110;28;20431;-79
2023/07/09 05:52:54;;;;;;;11.60;10.40;;;23.10;99.90;;;;;;5052747;28;20408;-79
2023/07/09 05:55:20;;;;;;;11.10;10.20;;;23.20;99.90;;;;;;5051782;28;20814;-78
2023/07/09 05:57:46;;;;;;;11.60;10.50;;;23.20;99.90;;;;;;5052583;28;20812;-79
2023/07/09 06:00:12;;;;;;;11.53;10.43;;;23.30;99.90;;;;;;5052220;28;20415;-78
2023/07/09 06:02:38;;;;;;;16.00;14.50;;;23.30;99.90;;;;;;5052550;28;20169;-78
2023/07/09 06:05:05;;;;;;;10.70;9.80;;;23.40;99.90;;;;;;5052043;28;20419;-68
2023/07/09 06:07:30;;;;;;;9.20;8.50;;;23.50;99.90;;;;;;5052582;28;20514;-78
2023/07/09 06:09:57;;;;;;;9.63;8.80;;;23.50;99.90;;;;;;5052473;28;20488;-78
2023/07/09 06:12:23;;;;;;;10.63;9.80;;;23.60;99.90;;;;;;5051863;28;20200;-78
2023/07/09 06:14:49;;;;;;;9.77;8.87;;;23.60;99.90;;;;;;5051701;28;20819;-78
2023/07/09 06:17:14;;;;;;;10.47;9.47;;;23.70;99.90;;;;;;5051677;28;20471;-78
2023/07/09 06:19:40;;;;;;;9.73;8.80;;;23.80;99.90;;;;;;5052408;28;20181;-78
2023/07/09 06:22:06;;;;;;;9.43;8.63;;;23.80;99.90;;;;;;5051890;28;20260;-77
2023/07/09 06:24:32;;;;;;;9.23;8.30;;;23.90;99.90;;;;;;5052387;28;20546;-78
2023/07/09 06:26:59;;;;;;;10.73;9.73;;;23.90;99.90;;;;;;5052287;28;20174;-78
2023/07/09 06:29:24;;;;;;;13.37;12.07;;;24.00;99.90;;;;;;5052009;28;20494;-78
2023/07/09 06:31:50;;;;;;;13.30;12.00;;;24.10;99.90;;;;;;5052211;28;20522;-78
2023/07/09 06:34:16;;;;;;;10.23;9.40;;;24.20;99.90;;;;;;5051652;28;20470;-78
2023/07/09 06:36:42;;;;;;;10.57;9.57;;;24.30;99.90;;;;;;5051883;28;20204;-78
2023/07/09 06:39:08;;;;;;;10.40;9.40;;;24.30;99.90;;;;;;5051733;28;20614;-78
2023/07/09 06:41:38;;;;;;;9.63;8.73;;;24.40;99.90;;;;;;5051933;28;20416;-78
2023/07/09 06:44:05;;;;;;;10.10;9.13;;;24.50;99.90;;;;;;5051902;28;20208;-78
2023/07/09 06:46:31;;;;;;;9.90;8.90;;;24.60;99.90;;;;;;5051744;28;20436;-78
2023/07/09 06:48:57;;;;;;;9.70;8.80;;;24.60;99.90;;;;;;5051829;28;20443;-79
2023/07/09 06:51:23;;;;;;;10.53;9.73;;;24.70;99.90;;;;;;5051524;28;20173;-78
2023/07/09 06:53:50;;;;;;;10.07;9.10;;;24.70;99.90;;;;;;5052107;28;20166;-78
2023/07/09 06:56:16;;;;;;;10.83;9.83;;;24.80;99.90;;;;;;5051308;28;20231;-78
2023/07/09 06:58:42;;;;;;;9.50;8.60;;;24.90;99.90;;;;;;5052123;28;20823;-78
2023/07/09 07:01:09;;;;;;;9.33;8.43;;;25.00;99.90;;;;;;5051469;28;20420;-73
2023/07/09 07:03:35;;;;;;;9.47;8.73;;;25.10;99.90;;;;;;5051971;28;20224;-78
2023/07/09 07:06:01;;;;;;;10.63;9.53;;;25.20;99.90;;;;;;5052062;28;20899;-78
2023/07/09 07:08:28;;;;;;;11.40;9.00;;;25.30;99.90;;;;;;5051370;28;20210;-78
2023/07/09 07:11:01;;;;;;;10.13;9.30;;;25.40;99.90;;;;;;5051954;28;20411;-78
2023/07/09 07:13:39;;;;;;;9.87;9.00;;;25.60;99.90;;;;;;5051410;28;20720;-78
2023/07/09 07:16:10;;;;;;;9.87;8.90;;;25.60;99.90;;;;;;5051861;28;20876;-78
2023/07/09 07:18:38;;;;;;;9.27;8.47;;;25.80;99.90;;;;;;5052006;28;20413;-77
2023/07/09 07:21:05;;;;;;;10.67;9.67;;;25.90;99.90;;;;;;5051930;28;20856;-79
2023/07/09 07:23:32;;;;;;;9.63;8.77;;;26.00;99.90;;;;;;5051198;28;20428;-78
2023/07/09 07:25:58;;;;;;;9.40;8.70;;;26.20;99.90;;;;;;5053161;28;20848;-79
2023/07/09 07:28:23;;;;;;;9.33;8.47;;;26.30;99.90;;;;;;5054683;28;20508;-78
2023/07/09 07:31:04;;;;;;;9.20;8.40;;;26.40;99.90;;;;;;5055377;28;20204;-79
2023/07/09 07:33:29;;;;;;;8.50;7.80;;;26.60;99.90;;;;;;5054765;28;20176;-78
2023/07/09 07:35:55;;;;;;;8.10;7.50;;;26.70;98.10;;;;;;5055175;28;20400;-79
2023/07/09 07:38:21;;;;;;;13.77;11.37;;;26.80;98.20;;;;;;5054545;28;20189;-78
2023/07/09 07:40:49;;;;;;;10.20;9.40;;;26.90;98.50;;;;;;5055258;28;20174;-79
2023/07/09 07:43:14;;;;;;;8.67;7.97;;;27.00;99.60;;;;;;5054176;28;20641;-78
2023/07/09 07:45:41;;;;;;;9.73;8.47;;;27.20;99.80;;;;;;5054728;28;20466;-78
2023/07/09 07:48:07;;;;;;;8.37;7.53;;;27.40;99.90;;;;;;5054977;28;20529;-79
2023/07/09 07:50:33;;;;;;;9.20;8.40;;;27.50;99.70;;;;;;5036412;28;20911;-78
2023/07/09 07:52:59;;;;;;;8.20;7.50;;;27.60;98.80;;;;;;5054863;28;20466;-79
2023/07/09 07:55:25;;;;;;;9.57;8.77;;;27.80;98.60;;;;;;5054110;28;20181;-78
2023/07/09 07:57:50;;;;;;;9.33;8.53;;;27.90;97.40;;;;;;5054741;28;20202;-79
2023/07/09 08:00:16;;;;;;;8.40;7.73;;;28.10;96.80;;;;;;5053854;28;20579;-78
2023/07/09 08:02:42;;;;;;;9.13;8.33;;;28.30;97.80;;;;;;5054780;28;20257;-79
2023/07/09 08:05:08;;;;;;;9.03;8.30;;;28.40;97.60;;;;;;5054750;28;20495;-79
2023/07/09 08:07:34;;;;;;;9.37;8.47;;;28.50;96.30;;;;;;5053997;28;20264;-78
2023/07/09 08:09:59;;;;;;;8.83;8.23;;;28.70;94.50;;;;;;5037240;28;20174;-79
2023/07/09 08:12:25;;;;;;;9.93;9.10;;;28.80;95.00;;;;;;5053931;28;20175;-78
2023/07/09 08:14:51;;;;;;;10.37;9.40;;;29.00;94.70;;;;;;5054472;28;20225;-79
2023/07/09 08:17:17;;;;;;;11.50;10.53;;;29.20;94.70;;;;;;5053824;28;20205;-78
2023/07/09 08:19:51;;;;;;;9.37;8.57;;;29.30;94.90;;;;;;5054445;28;20243;-79
2023/07/09 08:22:20;;;;;;;10.10;9.20;;;29.40;94.10;;;;;;5053551;28;20173;-78
2023/07/09 08:24:46;;;;;;;8.83;8.13;;;29.50;92.40;;;;;;5054424;28;20408;-79
2023/07/09 08:27:12;;;;;;;9.33;8.53;;;29.60;92.00;;;;;;5054336;28;20412;-65
2023/07/09 08:29:39;;;;;;;9.20;8.40;;;29.70;91.80;;;;;;5054141;28;20892;-79
2023/07/09 08:32:05;;;;;;;8.00;7.33;;;29.80;91.00;;;;;;5054231;28;20653;-79
2023/07/09 08:34:31;;;;;;;9.43;8.70;;;29.90;90.60;;;;;;5053547;28;20763;-78
2023/07/09 08:36:57;;;;;;;8.97;8.23;;;30.00;90.80;;;;;;5053821;28;20444;-79
2023/07/09 08:39:23;;;;;;;9.13;8.33;;;30.10;88.50;;;;;;5053158;28;20750;-79
2023/07/09 08:41:54;;;;;;;10.13;9.13;;;30.20;87.60;;;;;;5054043;28;20507;-79
2023/07/09 08:44:54;;;;;;;9.13;8.43;;;30.30;84.10;;;;;;5053341;28;20170;-78
2023/07/09 08:47:31;;;;;;;10.43;9.43;;;30.40;87.00;;;;;;5053248;28;20757;-78
2023/07/09 08:50:04;;;;;;;9.90;9.10;;;30.50;87.20;;;;;;5053939;28;20404;-79
2023/07/09 08:52:41;;;;;;;10.73;9.83;;;30.70;86.50;;;;;;5053189;28;20404;-79
2023/07/09 08:55:17;;;;;;;19.00;17.30;;;30.70;86.50;;;;;;5053867;28;20392;-78
2023/07/09 08:58:03;;;;;;;11.67;10.30;;;30.90;87.80;;;;;;5053642;28;20497;-79
2023/07/09 09:00:30;;;;;;;9.57;8.77;;;31.00;81.70;;;;;;5053041;28;20404;-77
2023/07/09 09:03:14;;;;;;;10.37;9.47;;;31.10;83.30;;;;;;5053575;28;20404;-78
2023/07/09 09:05:43;;;;;;;10.27;9.37;;;31.10;84.40;;;;;;5053743;28;20387;-78
2023/07/09 09:08:22;;;;;;;9.80;9.10;;;31.20;84.40;;;;;;5053470;28;20489;-79
2023/07/09 09:10:57;;;;;;;11.37;8.87;;;31.30;82.30;;;;;;5053598;28;20397;-79
2023/07/09 09:13:26;;;;;;;9.60;8.90;;;31.50;80.90;;;;;;5052902;28;20383;-78
2023/07/09 09:15:54;;;;;;;10.70;9.90;;;31.60;81.30;;;;;;5035026;28;20518;-79
2023/07/09 09:18:27;;;;;;;9.70;8.90;;;31.70;78.70;;;;;;5052571;28;20802;-78
2023/07/09 09:21:10;;;;;;;12.77;9.30;;;31.70;79.60;;;;;;5053354;28;20412;-79
2023/07/09 09:23:46;;;;;;;10.77;9.87;;;31.90;81.10;;;;;;5052641;28;20436;-78
2023/07/09 09:26:30;;;;;;;10.37;9.50;;;32.00;84.30;;;;;;5053247;28;20450;-78
2023/07/09 09:28:56;;;;;;;10.00;9.10;;;32.10;80.70;;;;;;5053301;28;20400;-79
2023/07/09 09:31:24;;;;;;;10.60;9.80;;;32.20;79.40;;;;;;5052441;28;20814;-78
2023/07/09 09:33:50;;;;;;;10.97;9.87;;;32.20;80.60;;;;;;5053032;28;20174;-79
2023/07/09 09:36:24;;;;;;;10.90;9.90;;;32.30;81.80;;;;;;5052076;28;20406;-66
2023/07/09 09:38:51;;;;;;;9.87;9.07;;;32.50;81.30;;;;;;5052961;28;20756;-78
2023/07/09 09:41:23;;;;;;;10.30;9.50;;;32.60;80.00;;;;;;5052321;28;20415;-75
2023/07/09 09:43:52;;;;;;;11.80;10.63;;;32.60;79.20;;;;;;5052984;28;20404;-78
2023/07/09 09:46:23;;;;;;;13.57;12.37;;;32.80;78.60;;;;;;5052374;28;20419;-78
2023/07/09 09:48:53;;;;;;;10.10;9.40;;;32.80;78.70;;;;;;5052109;28;20499;-78
2023/07/09 09:51:18;;;;;;;10.50;9.70;;;33.00;78.80;;;;;;5052007;28;20404;-77
2023/07/09 09:53:49;;;;;;;9.80;9.10;;;33.00;77.40;;;;;;5052746;28;20511;-78
2023/07/09 09:56:19;;;;;;;10.47;9.57;;;33.20;75.20;;;;;;5052769;28;20217;-78
2023/07/09 09:58:45;;;;;;;11.00;10.13;;;33.30;79.00;;;;;;5052822;28;20439;-78
2023/07/09 10:01:17;;;;;;;10.27;9.60;;;33.40;72.30;;;;;;5052591;28;20443;-78
2023/07/09 10:03:44;;;;;;;10.80;10.00;;;33.50;75.20;;;;;;5052420;28;20187;-78
2023/07/09 10:06:27;;;;;;;11.60;10.50;;;33.60;80.50;;;;;;5052537;28;20833;-78
2023/07/09 10:08:56;;;;;;;9.77;8.70;;;33.70;77.60;;;;;;5052671;28;20404;-78
2023/07/09 10:11:53;;;;;;;10.80;9.80;;;33.80;77.30;;;;;;5034179;28;20495;-77
2023/07/09 10:14:26;;;;;;;11.50;10.50;;;33.80;75.20;;;;;;5051295;28;20424;-75
2023/07/09 10:17:12;;;;;;;10.10;9.40;;;34.00;77.60;;;;;;5052412;28;20868;-78
2023/07/09 10:20:01;;;;;;;10.87;10.00;;;34.10;77.90;;;;;;5051619;28;20403;-78
2023/07/09 10:22:40;;;;;;;10.50;9.80;;;34.20;77.80;;;;;;5051182;28;20904;-78
2023/07/09 10:25:16;;;;;;;9.80;9.20;;;34.30;76.30;;;;;;5034784;28;20892;-78
2023/07/09 10:28:19;;;;;;;10.37;9.57;;;34.30;76.80;;;;;;5034124;28;20392;-78
2023/07/09 10:31:06;;;;;;;10.17;9.37;;;34.50;77.20;;;;;;5052280;28;20408;-78
2023/07/09 10:33:58;;;;;;;10.23;9.43;;;34.50;73.00;;;;;;5034028;28;20774;-78
2023/07/09 10:36:40;;;;;;;9.80;9.10;;;34.60;71.70;;;;;;5051623;28;20757;-77
2023/07/09 10:39:14;;;;;;;9.00;8.13;;;34.50;67.10;;;;;;5052393;28;20404;-78
2023/07/09 10:41:42;;;;;;;9.27;8.60;;;34.50;68.50;;;;;;5051956;28;20408;-78
2023/07/09 10:44:25;;;;;;;10.10;9.40;;;34.60;70.40;;;;;;5052101;28;20404;-77
2023/07/09 10:47:00;;;;;;;9.50;8.80;;;34.60;71.80;;;;;;5051876;28;20558;-78
2023/07/09 10:49:42;;;;;;;9.33;8.60;;;34.80;70.00;;;;;;5051671;28;20388;-78
2023/07/09 10:52:25;;;;;;;7.87;7.37;;;34.80;68.30;;;;;;5052241;28;20424;-78
2023/07/09 10:55:16;;;;;;;8.07;7.53;;;34.80;64.90;;;;;;5052119;28;20470;-78
2023/07/09 10:57:46;;;;;;;7.43;6.83;;;34.80;58.30;;;;;;5051424;28;20539;-78
2023/07/09 11:00:19;;;;;;;8.30;7.60;;;34.50;55.50;;;;;;5034404;28;20471;-78
2023/07/09 11:02:47;;;;;;;7.63;7.03;;;34.50;57.30;;;;;;5055304;28;20380;-78
2023/07/09 11:05:13;;;;;;;7.60;7.10;;;34.70;60.10;;;;;;5056175;28;20756;-78
2023/07/09 11:08:04;;;;;;;7.97;7.27;;;34.80;58.10;;;;;;5055122;28;20507;-78
2023/07/09 11:10:46;;;;;;;7.90;7.37;;;34.80;55.90;;;;;;5050228;28;20193;-77
2023/07/09 11:13:37;;;;;;;6.87;6.47;;;34.80;56.90;;;;;;5056039;28;20461;-79
2023/07/09 11:16:05;;;;;;;6.80;6.40;;;34.60;54.10;;;;;;5037519;28;20982;-77
2023/07/09 11:18:33;;;;;;;6.90;6.40;;;34.70;57.50;;;;;;5054924;28;20448;-77
2023/07/09 11:21:16;;;;;;;7.23;6.53;;;34.80;55.80;;;;;;5055582;28;20451;-77
2023/07/09 11:23:47;;;;;;;7.30;6.70;;;35.00;56.20;;;;;;5054949;28;20400;-78
2023/07/09 11:26:30;;;;;;;8.60;7.97;;;35.10;55.30;;;;;;5055477;28;20499;-77
2023/07/09 11:29:14;;;;;;;7.43;6.60;;;35.20;54.50;;;;;;5055356;28;20412;-77
2023/07/09 11:31:46;;;;;;;7.27;6.57;;;35.20;54.80;;;;;;5054730;28;20396;-78
2023/07/09 11:34:15;;;;;;;7.03;6.57;;;35.30;55.00;;;;;;5055298;28;20404;-78
2023/07/09 11:37:11;;;;;;;7.77;7.27;;;35.10;53.40;;;;;;5054319;28;20943;-77
2023/07/09 11:39:37;;;;;;;7.70;7.07;;;35.20;54.90;;;;;;5053449;28;20896;-78
2023/07/09 11:42:03;;;;;;;7.50;6.90;;;35.10;54.60;;;;;;5055151;28;20572;-78
2023/07/09 11:44:31;;;;;;;7.30;6.70;;;35.20;55.60;;;;;;5054471;28;20261;-77
2023/07/09 11:47:41;;;;;;;7.90;7.40;;;35.30;57.30;;;;;;5054829;28;20424;-78
2023/07/09 11:50:25;;;;;;;7.47;7.03;;;35.50;58.10;;;;;;5012718;28;20512;-78
2023/07/09 11:52:57;;;;;;;7.63;7.13;;;35.60;54.90;;;;;;5013024;28;20414;-77
2023/07/09 11:55:40;;;;;;;7.60;7.00;;;35.60;53.40;;;;;;5041358;28;20904;-78
2023/07/09 11:58:13;;;;;;;7.67;7.17;;;35.50;53.80;;;;;;5055011;28;20440;-79
2023/07/09 12:00:42;;;;;;;7.37;6.50;;;35.50;52.00;;;;;;5053933;28;20987;-77
2023/07/09 12:03:23;;;;;;;7.43;6.73;;;35.40;53.70;;;;;;5055013;28;20404;-77
2023/07/09 12:06:17;;;;;;;7.30;6.80;;;35.40;53.40;;;;;;5054191;28;20446;-78
2023/07/09 12:08:46;;;;;;;7.80;7.30;;;35.30;53.70;;;;;;5048945;28;20427;-78
2023/07/09 12:11:23;;;;;;;7.30;6.90;;;35.40;52.50;;;;;;5036681;28;20762;-78
2023/07/09 12:13:50;;;;;;;7.73;7.10;;;35.40;53.20;;;;;;5053018;28;20483;-78
2023/07/09 12:16:24;;;;;;;7.83;7.03;;;35.30;51.90;;;;;;5054474;28;20456;-78
2023/07/09 12:18:50;;;;;;;11.40;10.60;;;35.20;52.50;;;;;;5053547;28;20505;-78
2023/07/09 12:21:16;;;;;;;7.67;7.17;;;35.20;52.30;;;;;;5054814;28;20879;-78
2023/07/09 12:23:41;;;;;;;7.73;7.23;;;35.00;50.60;;;;;;5053733;28;20178;-78
2023/07/09 12:26:16;;;;;;;7.97;7.33;;;34.80;51.70;;;;;;5054107;28;20220;-78
2023/07/09 12:28:41;;;;;;;7.00;6.60;;;34.80;51.60;;;;;;5053777;28;20174;-78
2023/07/09 12:31:15;;;;;;;8.43;7.60;;;34.80;53.10;;;;;;5054171;28;20493;-78
2023/07/09 12:33:49;;;;;;;10.13;9.20;;;34.90;54.30;;;;;;5053274;28;20252;-78
2023/07/09 12:36:18;;;;;;;9.00;8.20;;;34.80;53.70;;;;;;5054169;28;20887;-78
2023/07/09 12:38:46;;;;;;;8.17;7.47;;;34.90;55.20;;;;;;5053404;28;20505;-78
2023/07/09 12:41:27;;;;;;;8.70;7.87;;;34.90;53.70;;;;;;5054031;28;20499;-78
2023/07/09 12:43:55;;;;;;;7.20;6.77;;;34.90;54.60;;;;;;5054034;28;20397;-79
2023/07/09 12:46:22;;;;;;;7.40;6.90;;;34.90;53.50;;;;;;5053620;28;20868;-79
2023/07/09 12:48:50;;;;;;;7.83;7.23;;;34.70;51.20;;;;;;5053296;28;20424;-79
2023/07/09 12:51:21;;;;;;;8.07;7.33;;;34.70;52.30;;;;;;5054266;28;20420;-79
2023/07/09 12:53:47;;;;;;;8.07;7.30;;;34.60;53.10;;;;;;5035507;28;20385;-78